M I D A S
Marine Information and Data Acquisition System
Tripno 1232 of the Zeeleeuw from 2007-03-16 08:07:43 to 2007-03-16 14:35:49
Back to CruiseResearch ActivitiesStationsMapUnderway DataData graphs

EquipmentUnitsComment
TimeDGPSUTC
LatitudeDGPSDM.mWGS84
LongitudeDGPSDM.mWGS84
HeadingGyrodeg 
SOGDGPSknotsSpeed over ground
COGDGPSdegCourse over ground
DepthEcho soundermeters200 kHz
Missing or incorrect values are displayed as -999
Navigation data collected by the RV Zeeleeuw from 2007-03-16 08:07:44 to 2007-03-16 14:45:47
                                                                                    Next 1000 lines
Time Latitude Longitude Heading SOG COG Depth
2007-03-16 08:07:54 51°13.596 2°56.093 115.1 0.6 292 -999
2007-03-16 08:07:59 51°13.597 2°56.091 115.5 0.9 294 -999
2007-03-16 08:08:04 51°13.598 2°56.089 116.1 1.2 295 -999
2007-03-16 08:08:09 51°13.599 2°56.086 116.5 1.6 294 -999
2007-03-16 08:08:14 51°13.6 2°56.082 116.8 1.9 296 -999
2007-03-16 08:08:19 51°13.602 2°56.077 117 2.3 295 -999
2007-03-16 08:08:24 51°13.603 2°56.072 117.3 2.6 296 -999
2007-03-16 08:08:29 51°13.605 2°56.066 117.5 2.9 296 -999
2007-03-16 08:08:34 51°13.607 2°56.06 117.9 3.2 295 -999
2007-03-16 08:08:39 51°13.609 2°56.053 118.4 3.4 296 -999
2007-03-16 08:08:44 51°13.611 2°56.046 119 3.6 295 -999
2007-03-16 08:08:49 51°13.614 2°56.038 119.7 3.8 296 -999
2007-03-16 08:08:54 51°13.616 2°56.03 119.9 4.1 296 -999
2007-03-16 08:08:59 51°13.619 2°56.022 120.1 4.3 297 -999
2007-03-16 08:09:04 51°13.622 2°56.013 120.4 4.6 296 -999
2007-03-16 08:09:09 51°13.625 2°56.003 121 4.8 297 -999
2007-03-16 08:09:14 51°13.628 2°55.993 121.5 5 296 -999
2007-03-16 08:09:19 51°13.631 2°55.983 121.9 5.1 297 -999
2007-03-16 08:09:24 51°13.634 2°55.973 122 5.3 297 -999
2007-03-16 08:09:29 51°13.638 2°55.962 122.1 5.4 298 -999
2007-03-16 08:09:34 51°13.642 2°55.951 122.1 5.6 298 -999
2007-03-16 08:09:39 51°13.645 2°55.94 121.9 5.7 298 -999
2007-03-16 08:09:44 51°13.649 2°55.929 121.4 5.8 298 -999
2007-03-16 08:09:49 51°13.653 2°55.918 120.5 5.8 298 -999
2007-03-16 08:09:54 51°13.656 2°55.907 119.2 5.7 297 -999
2007-03-16 08:09:59 51°13.66 2°55.896 117.7 5.4 297 -999
2007-03-16 08:10:04 51°13.663 2°55.886 116.1 5.2 296 -999
2007-03-16 08:10:09 51°13.666 2°55.876 114.5 5 294 -999
2007-03-16 08:10:14 51°13.669 2°55.866 112.7 4.9 293 -999
2007-03-16 08:10:19 51°13.671 2°55.856 110.7 4.7 292 -999
2007-03-16 08:10:24 51°13.673 2°55.847 108.7 4.6 290 -999
2007-03-16 08:10:29 51°13.675 2°55.837 106.6 4.4 289 -999
2007-03-16 08:10:34 51°13.677 2°55.829 104.5 4.2 288 -999
2007-03-16 08:10:39 51°13.679 2°55.82 102.2 4 286 -999
2007-03-16 08:10:44 51°13.68 2°55.812 100 3.9 284 -999
2007-03-16 08:10:49 51°13.681 2°55.804 97.9 3.7 282 -999
2007-03-16 08:10:54 51°13.682 2°55.796 95.9 3.6 280 -999
2007-03-16 08:10:59 51°13.683 2°55.789 94.3 3.4 279 -999
2007-03-16 08:11:04 51°13.683 2°55.782 91.8 3.3 277 -999
2007-03-16 08:11:09 51°13.684 2°55.775 89.7 3.1 276 -999
2007-03-16 08:11:14 51°13.684 2°55.768 87.5 3 273 -999
2007-03-16 08:11:19 51°13.684 2°55.762 85.7 2.8 272 -999
2007-03-16 08:11:24 51°13.684 2°55.756 83.4 2.6 270 -999
2007-03-16 08:11:29 51°13.684 2°55.751 81.4 2.5 268 -999
2007-03-16 08:11:34 51°13.684 2°55.746 79.2 2.3 267 -999
2007-03-16 08:11:39 51°13.684 2°55.741 76.2 2 266 -999
2007-03-16 08:11:44 51°13.683 2°55.738 71.4 1.5 266 -999
2007-03-16 08:11:49 51°13.683 2°55.736 66 0.9 263 -999
2007-03-16 08:11:54 51°13.684 2°55.735 60.7 0.4 286 -999
2007-03-16 08:11:59 51°13.684 2°55.735 55.4 0.3 346 -999
2007-03-16 08:12:04 51°13.685 2°55.735 49.7 0.6 21 -999
2007-03-16 08:12:09 51°13.686 2°55.736 43.5 0.9 29 -999
2007-03-16 08:12:14 51°13.688 2°55.737 37.1 1.3 28 -999
2007-03-16 08:12:19 51°13.689 2°55.739 31.9 1.6 27 -999
2007-03-16 08:12:24 51°13.692 2°55.741 24 1.9 22 -999
2007-03-16 08:12:29 51°13.695 2°55.742 19.3 2.1 17 -999
2007-03-16 08:12:34 51°13.698 2°55.743 13.3 2.1 11 -999
2007-03-16 08:12:39 51°13.701 2°55.743 8.8 2.2 6 -999
2007-03-16 08:12:44 51°13.704 2°55.744 1.8 2.4 3 -999
2007-03-16 08:12:49 51°13.708 2°55.743 355 2.6 355 -999
2007-03-16 08:12:54 51°13.712 2°55.742 348.5 3 351 -999
2007-03-16 08:12:59 51°13.716 2°55.74 338.6 3.4 342 -999
2007-03-16 08:13:04 51°13.721 2°55.737 333.1 3.9 337 -999
2007-03-16 08:13:09 51°13.726 2°55.732 331.5 4.4 330 -999
2007-03-16 08:13:14 51°13.732 2°55.726 331.4 4.8 328 -999
2007-03-16 08:13:19 51°13.738 2°55.72 331.5 5.3 327 -999
2007-03-16 08:13:24 51°13.745 2°55.712 331.6 6.1 327 -999
2007-03-16 08:13:29 51°13.753 2°55.704 332.3 6.7 327 -999
2007-03-16 08:13:34 51°13.762 2°55.695 332.3 7.3 327 -999
2007-03-16 08:13:39 51°13.771 2°55.686 333.6 7.9 328 -999
2007-03-16 08:13:44 51°13.781 2°55.676 334.2 8.3 327 -999
2007-03-16 08:13:49 51°13.791 2°55.666 334.5 8.7 331 -999
2007-03-16 08:13:54 51°13.802 2°55.656 336.4 9.1 329 -999
2007-03-16 08:13:59 51°13.814 2°55.646 339.8 9.4 332 -999
2007-03-16 08:14:04 51°13.825 2°55.637 340.4 9.6 334 -999
2007-03-16 08:14:09 51°13.838 2°55.628 339.9 9.8 336 -999
2007-03-16 08:14:14 51°13.85 2°55.619 340.5 9.8 335 -999
2007-03-16 08:14:19 51°13.862 2°55.609 340.5 9.7 335 -999
2007-03-16 08:14:24 51°13.874 2°55.601 339.9 9.7 336 -999
2007-03-16 08:14:29 51°13.886 2°55.592 340.9 9.7 335 -999
2007-03-16 08:14:34 51°13.899 2°55.583 341.8 9.6 335 -999
2007-03-16 08:14:39 51°13.911 2°55.575 341.1 9.5 337 -999
2007-03-16 08:14:44 51°13.924 2°55.567 340.9 9.5 336 -999
2007-03-16 08:14:49 51°13.936 2°55.558 341.1 9.3 336 -999
2007-03-16 08:14:54 51°13.947 2°55.55 340.8 9 337 -999
2007-03-16 08:14:59 51°13.958 2°55.542 340.2 8.7 336 -999
2007-03-16 08:15:04 51°13.969 2°55.535 340.2 8.5 336 -999
2007-03-16 08:15:09 51°13.979 2°55.527 340.2 8.3 336 -999
2007-03-16 08:15:14 51°13.989 2°55.52 339.7 8.1 336 -999
2007-03-16 08:15:19 51°13.999 2°55.512 339.2 8 336 -999
2007-03-16 08:15:24 51°14.009 2°55.505 339.1 7.8 335 -999
2007-03-16 08:15:29 51°14.019 2°55.498 339.5 7.6 335 -999
2007-03-16 08:15:34 51°14.028 2°55.492 340 7.5 336 -999
2007-03-16 08:15:39 51°14.038 2°55.485 340.1 7.4 336 -999
2007-03-16 08:15:44 51°14.047 2°55.479 339.7 7.3 337 -999
2007-03-16 08:15:49 51°14.057 2°55.472 339.7 7.3 336 -999
2007-03-16 08:15:54 51°14.066 2°55.466 339.6 7.3 336 -999
2007-03-16 08:15:59 51°14.075 2°55.459 339.5 7.4 336 -999
2007-03-16 08:16:04 51°14.085 2°55.452 338.7 7.4 336 -999
2007-03-16 08:16:09 51°14.094 2°55.445 337.8 7.4 335 -999
2007-03-16 08:16:14 51°14.103 2°55.438 337.5 7.5 334 -999
2007-03-16 08:16:19 51°14.113 2°55.431 337.1 7.7 334 -999
2007-03-16 08:16:24 51°14.123 2°55.423 336.3 8.1 334 -999
2007-03-16 08:16:29 51°14.133 2°55.414 335.6 8.5 332 -999
2007-03-16 08:16:34 51°14.144 2°55.404 334.9 8.9 332 -999
2007-03-16 08:16:39 51°14.156 2°55.394 334.4 9.4 331 -999
2007-03-16 08:16:44 51°14.167 2°55.383 333.1 9.8 330 -999
2007-03-16 08:16:49 51°14.179 2°55.372 330.4 10.1 329 -999
2007-03-16 08:16:54 51°14.191 2°55.359 328.5 10.3 326 -999
2007-03-16 08:16:59 51°14.203 2°55.345 326.4 10.5 324 -999
2007-03-16 08:17:04 51°14.215 2°55.331 323.8 10.7 322 -999
2007-03-16 08:17:09 51°14.226 2°55.315 322.2 10.9 319 -999
2007-03-16 08:17:14 51°14.237 2°55.299 319.7 11.1 317 -999
2007-03-16 08:17:19 51°14.249 2°55.281 317.9 11.3 316 -999
2007-03-16 08:17:24 51°14.259 2°55.263 316.6 11.6 313 -999
2007-03-16 08:17:29 51°14.271 2°55.243 315.9 12 312 -999
2007-03-16 08:17:34 51°14.282 2°55.223 315.4 12.3 312 -999
2007-03-16 08:17:39 51°14.293 2°55.201 315 12.6 311 -999
2007-03-16 08:17:44 51°14.305 2°55.18 314.2 12.8 311 -999
2007-03-16 08:17:49 51°14.316 2°55.158 313.8 12.9 310 -999
2007-03-16 08:17:54 51°14.328 2°55.136 313.8 13.1 310 -999
2007-03-16 08:17:59 51°14.34 2°55.113 313.8 13.2 310 -999
2007-03-16 08:18:04 51°14.352 2°55.091 312.3 13.2 310 -999
2007-03-16 08:18:09 51°14.363 2°55.068 310.2 13.3 309 -999
2007-03-16 08:18:14 51°14.374 2°55.044 309.6 13.3 306 -999
2007-03-16 08:18:19 51°14.385 2°55.021 308.2 13.3 307 -999
2007-03-16 08:18:24 51°14.396 2°54.997 305 13.3 305 -999
2007-03-16 08:18:29 51°14.406 2°54.972 302 13.3 302 -999
2007-03-16 08:18:34 51°14.415 2°54.947 299.8 13.3 299 -999
2007-03-16 08:18:39 51°14.423 2°54.92 297.5 13.3 297 -999
2007-03-16 08:18:44 51°14.431 2°54.894 293 13.2 294 -999
2007-03-16 08:18:49 51°14.437 2°54.867 288 13.1 290 -999
2007-03-16 08:18:54 51°14.442 2°54.839 284.5 13.1 284 -999
2007-03-16 08:18:59 51°14.445 2°54.81 282.1 13 282 -999
2007-03-16 08:19:04 51°14.448 2°54.782 281.4 13.1 279 -999
2007-03-16 08:19:09 51°14.45 2°54.753 278.7 13 278 -999
2007-03-16 08:19:14 51°14.452 2°54.725 274 13 276 -999
2007-03-16 08:19:19 51°14.452 2°54.696 269.6 12.9 271 -999
2007-03-16 08:19:24 51°14.451 2°54.668 266.3 12.9 266 -999
2007-03-16 08:19:29 51°14.449 2°54.64 263.7 12.9 263 -999
2007-03-16 08:19:34 51°14.446 2°54.611 260.9 12.9 260 -999
2007-03-16 08:19:39 51°14.442 2°54.584 257.3 12.9 258 -999
2007-03-16 08:19:44 51°14.438 2°54.557 253.1 12.8 254 -999
2007-03-16 08:19:49 51°14.431 2°54.53 248.9 12.8 249 -999
2007-03-16 08:19:54 51°14.424 2°54.504 243.5 12.8 246 -999
2007-03-16 08:19:59 51°14.415 2°54.48 239.5 12.7 240 -999
2007-03-16 08:20:04 51°14.405 2°54.457 238.9 12.7 236 -999
2007-03-16 08:20:09 51°14.395 2°54.434 239.1 12.8 235 -999
2007-03-16 08:20:14 51°14.385 2°54.41 240 12.8 236 -999
2007-03-16 08:20:19 51°14.375 2°54.387 241.5 12.8 237 -999
2007-03-16 08:20:24 51°14.366 2°54.363 242.5 12.8 238 -999
2007-03-16 08:20:29 51°14.357 2°54.338 243.7 12.9 240 -999
2007-03-16 08:20:34 51°14.348 2°54.314 243.7 12.9 240 -999
2007-03-16 08:20:39 51°14.34 2°54.289 243.1 12.9 241 -999
2007-03-16 08:20:44 51°14.331 2°54.264 242.8 12.9 240 -999
2007-03-16 08:20:49 51°14.322 2°54.24 242.4 12.9 240 -999
2007-03-16 08:20:54 51°14.312 2°54.215 242 12.9 239 -999
2007-03-16 08:20:59 51°14.303 2°54.191 241.7 12.9 238 -999
2007-03-16 08:21:04 51°14.294 2°54.167 241.4 12.9 239 -999
2007-03-16 08:21:09 51°14.284 2°54.142 241.6 12.9 238 -999
2007-03-16 08:21:14 51°14.275 2°54.118 241.5 12.9 239 -999
2007-03-16 08:21:19 51°14.265 2°54.094 241.6 12.9 237 -999
2007-03-16 08:21:24 51°14.256 2°54.069 241.5 12.9 239 -999
2007-03-16 08:21:29 51°14.246 2°54.045 241.5 13 238 -999
2007-03-16 08:21:34 51°14.237 2°54.021 241.5 13 239 -999
2007-03-16 08:21:39 51°14.227 2°53.997 241.6 12.9 238 -999
2007-03-16 08:21:44 51°14.218 2°53.972 241.9 12.9 239 -999
2007-03-16 08:21:49 51°14.209 2°53.948 241.9 13 238 -999
2007-03-16 08:21:54 51°14.199 2°53.924 242 13 239 -999
2007-03-16 08:21:59 51°14.19 2°53.899 242.3 13 238 -999
2007-03-16 08:22:04 51°14.181 2°53.875 242.3 13 239 -999
2007-03-16 08:22:09 51°14.171 2°53.85 242.4 12.9 238 -999
2007-03-16 08:22:14 51°14.162 2°53.826 242.6 13 239 -999
2007-03-16 08:22:19 51°14.153 2°53.801 242.4 12.9 239 -999
2007-03-16 08:22:24 51°14.144 2°53.777 242.2 12.9 239 -999
2007-03-16 08:22:29 51°14.134 2°53.753 242.3 12.9 238 -999
2007-03-16 08:22:34 51°14.125 2°53.728 242.3 13 239 -999
2007-03-16 08:22:39 51°14.116 2°53.704 242.4 13 238 -999
2007-03-16 08:22:44 51°14.106 2°53.679 242.4 12.9 239 -999
2007-03-16 08:22:49 51°14.097 2°53.655 242.4 13 239 -999
2007-03-16 08:22:54 51°14.088 2°53.631 242.4 13 239 -999
2007-03-16 08:22:59 51°14.078 2°53.606 242.3 13 239 -999
2007-03-16 08:23:04 51°14.069 2°53.582 242.4 13 239 -999
2007-03-16 08:23:09 51°14.06 2°53.557 242.7 13 239 -999
2007-03-16 08:23:14 51°14.051 2°53.533 242.6 13 239 -999
2007-03-16 08:23:19 51°14.041 2°53.508 242.4 13 240 -999
2007-03-16 08:23:24 51°14.032 2°53.484 242.4 13 239 -999
2007-03-16 08:23:29 51°14.023 2°53.459 242.4 13 239 -999
2007-03-16 08:23:34 51°14.013 2°53.435 242 12.9 239 -999
2007-03-16 08:23:39 51°14.004 2°53.41 242 13 238 -999
2007-03-16 08:23:44 51°13.995 2°53.386 242.3 13 238 -999
2007-03-16 08:23:49 51°13.985 2°53.361 242.3 13 239 -999
2007-03-16 08:23:54 51°13.976 2°53.337 242.6 12.9 238 -999
2007-03-16 08:23:59 51°13.966 2°53.313 242.6 12.9 239 -999
2007-03-16 08:24:04 51°13.957 2°53.288 242.5 12.9 239 -999
2007-03-16 08:24:09 51°13.948 2°53.264 243 12.9 238 -999
2007-03-16 08:24:14 51°13.939 2°53.239 243 13 240 -999
2007-03-16 08:24:19 51°13.929 2°53.215 243.1 13 239 -999
2007-03-16 08:24:24 51°13.92 2°53.19 242.9 12.9 239 -999
2007-03-16 08:24:29 51°13.911 2°53.166 243 12.9 239 -999
2007-03-16 08:24:34 51°13.902 2°53.141 243.1 13 239 -999
2007-03-16 08:24:39 51°13.893 2°53.117 243.1 12.9 240 -999
2007-03-16 08:24:44 51°13.883 2°53.092 242.7 12.9 239 -999
2007-03-16 08:24:49 51°13.874 2°53.067 242.9 12.9 239 -999
2007-03-16 08:24:54 51°13.865 2°53.043 243.3 13 239 -999
2007-03-16 08:24:59 51°13.856 2°53.018 243 13 240 -999
2007-03-16 08:25:04 51°13.847 2°52.994 243.1 13 239 -999
2007-03-16 08:25:09 51°13.837 2°52.969 243.1 13 239 -999
2007-03-16 08:25:14 51°13.828 2°52.944 242.8 13 240 -999
2007-03-16 08:25:19 51°13.819 2°52.92 243.5 13 238 -999
2007-03-16 08:25:24 51°13.81 2°52.895 242.8 13 241 -999
2007-03-16 08:25:29 51°13.801 2°52.87 243.6 13 238 -999
2007-03-16 08:25:34 51°13.792 2°52.845 243.4 13 240 -999
2007-03-16 08:25:39 51°13.782 2°52.821 243.4 13 239 -999
2007-03-16 08:25:44 51°13.773 2°52.796 243.5 13 240 -999
2007-03-16 08:25:49 51°13.764 2°52.771 243.5 13 239 -999
2007-03-16 08:25:54 51°13.755 2°52.746 244 13 240 -999
2007-03-16 08:25:59 51°13.746 2°52.721 243.7 13 240 -999
2007-03-16 08:26:04 51°13.737 2°52.696 243.7 13 240 -999
2007-03-16 08:26:09 51°13.728 2°52.671 243.8 13.1 240 -999
2007-03-16 08:26:14 51°13.719 2°52.646 243.9 13.1 239 -999
2007-03-16 08:26:19 51°13.71 2°52.621 243.7 13 241 -999
2007-03-16 08:26:24 51°13.701 2°52.596 243.8 13.1 240 -999
2007-03-16 08:26:29 51°13.692 2°52.571 243.8 13.1 240 -999
2007-03-16 08:26:34 51°13.683 2°52.546 244 13.1 240 -999
2007-03-16 08:26:39 51°13.673 2°52.521 244 13.2 240 -999
2007-03-16 08:26:44 51°13.665 2°52.496 243.5 13.1 241 -999
2007-03-16 08:26:49 51°13.655 2°52.471 243.6 13.1 239 -999
2007-03-16 08:26:54 51°13.646 2°52.446 243.5 13.1 239 -999
2007-03-16 08:26:59 51°13.637 2°52.421 243.7 13.1 240 -999
2007-03-16 08:27:04 51°13.628 2°52.396 243.7 13.1 240 -999
2007-03-16 08:27:09 51°13.619 2°52.371 244.2 13.2 240 -999
2007-03-16 08:27:14 51°13.609 2°52.346 243.9 13.2 240 -999
2007-03-16 08:27:19 51°13.6 2°52.32 243.6 13.1 240 -999
2007-03-16 08:27:24 51°13.591 2°52.296 243.6 13.1 240 -999
2007-03-16 08:27:29 51°13.582 2°52.271 243.3 13.1 240 -999
2007-03-16 08:27:34 51°13.573 2°52.246 243.3 13.1 239 -999
2007-03-16 08:27:39 51°13.563 2°52.221 243.1 13.1 239 -999
2007-03-16 08:27:44 51°13.554 2°52.196 243 13.1 239 -999
2007-03-16 08:27:49 51°13.545 2°52.171 242.8 13.1 239 -999
2007-03-16 08:27:54 51°13.536 2°52.146 242.8 13.1 239 -999
2007-03-16 08:27:59 51°13.526 2°52.121 243.1 13.2 239 -999
2007-03-16 08:28:04 51°13.517 2°52.096 243.1 13.2 240 -999
2007-03-16 08:28:09 51°13.507 2°52.071 243.1 13.1 239 -999
2007-03-16 08:28:14 51°13.498 2°52.046 243.1 13.1 240 -999
2007-03-16 08:28:19 51°13.489 2°52.021 243.1 13.1 240 -999
2007-03-16 08:28:24 51°13.48 2°51.996 243.3 13.1 239 -999
2007-03-16 08:28:29 51°13.471 2°51.971 243.1 13.1 240 -999
2007-03-16 08:28:34 51°13.461 2°51.947 243.3 13.1 239 -999
2007-03-16 08:28:39 51°13.452 2°51.921 243.2 13.2 241 -999
2007-03-16 08:28:44 51°13.443 2°51.896 243 13.1 239 -999
2007-03-16 08:28:49 51°13.434 2°51.871 243 13.2 240 -999
2007-03-16 08:28:54 51°13.425 2°51.846 242.7 13.1 239 -999
2007-03-16 08:28:59 51°13.415 2°51.821 242.8 13.1 240 -999
2007-03-16 08:29:04 51°13.406 2°51.797 243.1 13.2 238 -999
2007-03-16 08:29:09 51°13.397 2°51.771 243.1 13.1 240 -999
2007-03-16 08:29:14 51°13.387 2°51.747 243.1 13.1 239 -999
2007-03-16 08:29:19 51°13.378 2°51.722 243.1 13.2 239 -999
2007-03-16 08:29:24 51°13.369 2°51.697 243.2 13.1 239 -999
2007-03-16 08:29:29 51°13.359 2°51.672 243.6 13.2 240 -999
2007-03-16 08:29:34 51°13.35 2°51.647 243.6 13.2 239 -999
2007-03-16 08:29:39 51°13.341 2°51.621 243.4 13.1 241 -999
2007-03-16 08:29:44 51°13.332 2°51.597 243.4 13.2 239 -999
2007-03-16 08:29:49 51°13.323 2°51.571 243.1 13.2 240 -999
2007-03-16 08:29:54 51°13.313 2°51.546 243.4 13.1 239 -999
2007-03-16 08:29:59 51°13.304 2°51.521 243.1 13.1 240 -999
2007-03-16 08:30:04 51°13.295 2°51.497 243.1 13.1 239 -999
2007-03-16 08:30:09 51°13.286 2°51.471 243.3 13.2 240 -999
2007-03-16 08:30:14 51°13.276 2°51.446 243.2 13.1 239 -999
2007-03-16 08:30:19 51°13.267 2°51.421 243.1 13.1 240 -999
2007-03-16 08:30:24 51°13.258 2°51.397 242.8 13.1 239 -999
2007-03-16 08:30:29 51°13.248 2°51.372 243 13.1 239 -999
2007-03-16 08:30:34 51°13.239 2°51.347 243.1 13.1 239 -999
2007-03-16 08:30:39 51°13.23 2°51.322 243.3 13.1 239 -999
2007-03-16 08:30:44 51°13.221 2°51.297 242.7 13 240 -999
2007-03-16 08:30:49 51°13.212 2°51.273 242.8 13 239 -999
2007-03-16 08:30:54 51°13.202 2°51.248 243.1 13 239 -999
2007-03-16 08:30:59 51°13.193 2°51.223 243.1 13 240 -999
2007-03-16 08:31:05 51°13.182 2°51.194 243 13 239 -999
2007-03-16 08:31:10 51°13.173 2°51.169 242.8 12.9 239 -999
2007-03-16 08:31:15 51°13.163 2°51.145 243.2 12.9 239 -999
2007-03-16 08:31:19 51°13.156 2°51.125 243.1 12.9 240 -999
2007-03-16 08:31:25 51°13.145 2°51.096 243.6 13 239 -999
2007-03-16 08:31:29 51°13.138 2°51.076 243.9 12.9 241 -999
2007-03-16 08:31:35 51°13.127 2°51.046 244.5 12.9 239 -999
2007-03-16 08:31:39 51°13.12 2°51.026 245.2 12.9 242 -999
2007-03-16 08:31:45 51°13.11 2°50.996 245.5 12.9 241 -999
2007-03-16 08:31:49 51°13.104 2°50.976 245.7 12.9 243 -999
2007-03-16 08:31:55 51°13.093 2°50.946 245.8 12.8 242 -999
2007-03-16 08:32:00 51°13.085 2°50.921 246 12.8 242 -999
2007-03-16 08:32:05 51°13.077 2°50.896 246 12.9 243 -999
2007-03-16 08:32:09 51°13.07 2°50.876 245.6 12.9 242 -999
2007-03-16 08:32:14 51°13.062 2°50.85 245.3 12.9 242 -999
2007-03-16 08:32:20 51°13.052 2°50.82 245.1 12.9 242 -999
2007-03-16 08:32:25 51°13.043 2°50.796 245.1 12.9 241 -999
2007-03-16 08:32:30 51°13.035 2°50.77 244.8 12.9 242 -999
2007-03-16 08:32:35 51°13.026 2°50.745 245.1 12.9 241 -999
2007-03-16 08:32:40 51°13.018 2°50.72 244.7 12.8 243 -999
2007-03-16 08:32:45 51°13.009 2°50.695 245.2 12.9 240 -999
2007-03-16 08:32:50 51°13.001 2°50.67 244.9 12.9 243 -999
2007-03-16 08:32:54 51°12.994 2°50.65 245 12.9 241 -999
2007-03-16 08:33:00 51°12.984 2°50.62 245.4 12.9 242 -999
2007-03-16 08:33:04 51°12.977 2°50.6 245.3 12.8 242 -999
2007-03-16 08:33:10 51°12.967 2°50.57 245 12.9 242 -999
2007-03-16 08:33:14 51°12.96 2°50.55 244.9 12.9 241 -999
2007-03-16 08:33:20 51°12.95 2°50.52 244.9 12.8 242 -999
2007-03-16 08:33:24 51°12.943 2°50.5 245.1 12.9 241 -999
2007-03-16 08:33:30 51°12.933 2°50.47 245.1 12.9 242 -999
2007-03-16 08:33:35 51°12.924 2°50.445 245.2 12.9 242 -999
2007-03-16 08:33:39 51°12.917 2°50.425 245.2 12.9 242 -999
2007-03-16 08:33:44 51°12.909 2°50.4 244.8 12.8 242 -999
2007-03-16 08:33:49 51°12.9 2°50.375 245.5 12.9 241 -999
2007-03-16 08:33:55 51°12.891 2°50.344 245 12.9 243 -999
2007-03-16 08:33:59 51°12.884 2°50.324 245.4 12.9 241 -999
2007-03-16 08:34:05 51°12.874 2°50.294 245.4 12.9 243 -999
2007-03-16 08:34:09 51°12.867 2°50.274 245.5 12.9 242 -999
2007-03-16 08:34:15 51°12.858 2°50.243 245.3 12.9 243 -999
2007-03-16 08:34:20 51°12.849 2°50.218 245.5 13 242 -999
2007-03-16 08:34:25 51°12.841 2°50.193 245.2 12.9 243 -999
2007-03-16 08:34:29 51°12.834 2°50.173 245.2 12.9 242 -999
2007-03-16 08:34:35 51°12.824 2°50.142 245.3 12.9 242 -999
2007-03-16 08:34:40 51°12.815 2°50.117 245.2 13 242 -999
2007-03-16 08:34:45 51°12.807 2°50.092 245.1 12.9 243 -999
2007-03-16 08:34:50 51°12.799 2°50.067 245.3 12.9 242 -999
2007-03-16 08:34:55 51°12.79 2°50.041 245.1 13 242 -999
2007-03-16 08:35:00 51°12.782 2°50.016 245.3 12.9 242 -999
2007-03-16 08:35:05 51°12.774 2°49.991 245.1 12.9 243 -999
2007-03-16 08:35:10 51°12.765 2°49.965 245.4 12.9 242 -999
2007-03-16 08:35:15 51°12.757 2°49.94 245.3 13 242 -999
2007-03-16 08:35:20 51°12.749 2°49.915 244.9 12.9 242 -999
2007-03-16 08:35:25 51°12.74 2°49.89 245.2 13 242 -999
2007-03-16 08:35:30 51°12.732 2°49.864 244.6 12.9 243 -999
2007-03-16 08:35:34 51°12.725 2°49.845 244.8 12.8 241 -999
2007-03-16 08:35:40 51°12.715 2°49.814 245.2 13 242 -999
2007-03-16 08:35:45 51°12.707 2°49.789 245 12.9 243 -999
2007-03-16 08:35:50 51°12.698 2°49.764 245.3 12.9 241 -999
2007-03-16 08:35:55 51°12.69 2°49.739 245.3 12.9 243 -999
2007-03-16 08:36:00 51°12.681 2°49.713 245.2 12.9 242 -999
2007-03-16 08:36:04 51°12.675 2°49.693 245 12.9 243 -999
2007-03-16 08:36:10 51°12.665 2°49.663 244.8 12.9 242 -999
2007-03-16 08:36:15 51°12.657 2°49.638 245 12.9 242 -999
2007-03-16 08:36:20 51°12.648 2°49.613 245.1 12.9 242 -999
2007-03-16 08:36:24 51°12.642 2°49.593 245.3 12.8 242 -999
2007-03-16 08:36:30 51°12.632 2°49.562 245.5 12.8 242 -999
2007-03-16 08:36:35 51°12.624 2°49.537 245.3 12.9 243 -999
2007-03-16 08:36:39 51°12.617 2°49.517 245 12.9 243 -999
2007-03-16 08:36:45 51°12.607 2°49.487 245 12.9 242 -999
2007-03-16 08:36:50 51°12.599 2°49.462 245.3 12.8 242 -999
2007-03-16 08:36:55 51°12.59 2°49.436 245.2 12.8 243 -999
2007-03-16 08:36:59 51°12.584 2°49.416 245.5 12.8 242 -999
2007-03-16 08:37:05 51°12.574 2°49.386 245.3 12.8 242 -999
2007-03-16 08:37:09 51°12.567 2°49.366 245.1 12.8 242 -999
2007-03-16 08:37:15 51°12.557 2°49.336 245.1 12.8 242 -999
2007-03-16 08:37:20 51°12.549 2°49.311 245.3 12.8 242 -999
2007-03-16 08:37:25 51°12.54 2°49.286 245.7 12.9 242 -999
2007-03-16 08:37:29 51°12.534 2°49.265 245.3 12.9 244 -999
2007-03-16 08:37:35 51°12.524 2°49.236 245 12.8 242 -999
2007-03-16 08:37:40 51°12.516 2°49.211 245.3 12.8 242 -999
2007-03-16 08:37:45 51°12.508 2°49.185 245.2 12.8 243 -999
2007-03-16 08:37:50 51°12.499 2°49.16 245.4 12.9 241 -999
2007-03-16 08:37:54 51°12.493 2°49.14 245.3 12.9 243 -999
2007-03-16 08:38:00 51°12.483 2°49.11 245.3 12.8 242 -999
2007-03-16 08:38:05 51°12.475 2°49.085 245.4 12.8 243 -999
2007-03-16 08:38:10 51°12.466 2°49.06 245.2 12.8 243 -999
2007-03-16 08:38:14 51°12.46 2°49.04 244.9 12.8 242 -999
2007-03-16 08:38:20 51°12.45 2°49.01 245.2 12.9 242 -999
2007-03-16 08:38:24 51°12.443 2°48.99 244.7 12.9 243 -999
2007-03-16 08:38:30 51°12.433 2°48.96 245.2 12.8 242 -999
2007-03-16 08:38:35 51°12.425 2°48.935 245.3 12.8 242 -999
2007-03-16 08:38:40 51°12.417 2°48.91 245.3 12.8 242 -999
2007-03-16 08:38:44 51°12.41 2°48.89 245.4 12.8 242 -999
2007-03-16 08:38:50 51°12.4 2°48.859 245.5 12.8 242 -999
2007-03-16 08:38:55 51°12.392 2°48.834 245.3 12.8 243 -999
2007-03-16 08:38:59 51°12.385 2°48.814 245.7 12.8 242 -999
2007-03-16 08:39:04 51°12.377 2°48.789 245.4 12.8 243 -999
2007-03-16 08:39:10 51°12.367 2°48.759 245 12.7 242 -999
2007-03-16 08:39:15 51°12.359 2°48.734 245.4 12.8 242 -999
2007-03-16 08:39:20 51°12.35 2°48.709 245.4 12.9 242 -999
2007-03-16 08:39:25 51°12.342 2°48.684 244.9 12.8 242 -999
2007-03-16 08:39:30 51°12.333 2°48.659 245.1 12.8 242 -999
2007-03-16 08:39:35 51°12.325 2°48.634 245.4 12.8 242 -999
2007-03-16 08:39:39 51°12.319 2°48.614 246.7 12.8 243 -999
2007-03-16 08:39:45 51°12.309 2°48.584 249.2 12.8 244 -999
2007-03-16 08:39:49 51°12.304 2°48.563 250.3 12.8 247 -999
2007-03-16 08:39:55 51°12.296 2°48.532 251.5 12.7 248 -999
2007-03-16 08:40:00 51°12.29 2°48.505 252.4 12.8 248 -999
2007-03-16 08:40:05 51°12.284 2°48.479 252.9 12.8 250 -999
2007-03-16 08:40:10 51°12.278 2°48.452 253.4 12.8 249 -999
2007-03-16 08:40:15 51°12.272 2°48.426 253.8 12.8 251 -999
2007-03-16 08:40:20 51°12.266 2°48.399 253.8 12.8 251 -999
2007-03-16 08:40:25 51°12.261 2°48.372 254 12.8 251 -999
2007-03-16 08:40:30 51°12.255 2°48.345 253.8 12.8 251 -999
2007-03-16 08:40:35 51°12.249 2°48.319 254 12.8 251 -999
2007-03-16 08:40:40 51°12.243 2°48.292 253.8 12.8 252 -999
2007-03-16 08:40:45 51°12.238 2°48.265 253.7 12.8 251 -999
2007-03-16 08:40:50 51°12.232 2°48.238 253.8 12.8 251 -999
2007-03-16 08:40:54 51°12.227 2°48.217 253.8 12.8 251 -999
2007-03-16 08:41:00 51°12.221 2°48.185 253.9 12.8 251 -999
2007-03-16 08:41:05 51°12.215 2°48.158 253.7 12.8 251 -999
2007-03-16 08:41:10 51°12.209 2°48.132 253.6 12.8 251 -999
2007-03-16 08:41:15 51°12.203 2°48.105 253.4 12.8 251 -999
2007-03-16 08:41:20 51°12.198 2°48.078 253.6 12.8 251 -999
2007-03-16 08:41:25 51°12.192 2°48.051 253.7 12.8 251 -999
2007-03-16 08:41:30 51°12.186 2°48.025 253.6 12.9 251 -999
2007-03-16 08:41:35 51°12.18 2°47.998 254 12.8 251 -999
2007-03-16 08:41:40 51°12.174 2°47.971 254.3 12.9 252 -999
2007-03-16 08:41:44 51°12.17 2°47.95 255.2 12.8 251 -999
2007-03-16 08:41:50 51°12.164 2°47.917 255.9 12.8 253 -999
2007-03-16 08:41:55 51°12.158 2°47.89 256.4 12.8 253 -999
2007-03-16 08:42:00 51°12.153 2°47.863 256.9 12.9 254 -999
2007-03-16 08:42:05 51°12.149 2°47.835 256.9 12.8 254 -999
2007-03-16 08:42:10 51°12.144 2°47.808 257.1 12.9 254 -999
2007-03-16 08:42:15 51°12.139 2°47.781 257 12.8 255 -999
2007-03-16 08:42:19 51°12.135 2°47.759 256.9 12.8 253 -999
2007-03-16 08:42:25 51°12.129 2°47.726 256.6 12.8 255 -999
2007-03-16 08:42:29 51°12.125 2°47.705 256.8 12.8 253 -999
2007-03-16 08:42:35 51°12.119 2°47.672 256.6 12.8 255 -999
2007-03-16 08:42:39 51°12.115 2°47.65 256.5 12.8 253 -999
2007-03-16 08:42:45 51°12.109 2°47.617 256.7 12.8 254 -999
2007-03-16 08:42:49 51°12.105 2°47.595 256.6 12.9 254 -999
2007-03-16 08:42:55 51°12.099 2°47.563 256.4 12.8 254 -999
2007-03-16 08:43:00 51°12.094 2°47.536 256.5 12.9 254 -999
2007-03-16 08:43:05 51°12.089 2°47.508 256.3 12.8 254 -999
2007-03-16 08:43:10 51°12.084 2°47.481 256.2 12.8 253 -999
2007-03-16 08:43:15 51°12.079 2°47.454 256.6 12.8 254 -999
2007-03-16 08:43:20 51°12.074 2°47.427 256.7 12.9 254 -999
2007-03-16 08:43:25 51°12.069 2°47.4 256.5 12.9 254 -999
2007-03-16 08:43:30 51°12.064 2°47.372 256.4 12.8 254 -999
2007-03-16 08:43:34 51°12.06 2°47.351 257 12.8 254 -999
2007-03-16 08:43:40 51°12.055 2°47.318 260.5 12.9 255 -999
2007-03-16 08:43:45 51°12.051 2°47.29 263.6 12.8 257 -999
2007-03-16 08:43:50 51°12.049 2°47.262 266.1 12.8 262 -999
2007-03-16 08:43:54 51°12.047 2°47.239 267.8 12.8 263 -999
2007-03-16 08:44:00 51°12.045 2°47.205 269.4 12.8 266 -999
2007-03-16 08:44:05 51°12.044 2°47.177 270.1 12.8 266 -999
2007-03-16 08:44:10 51°12.044 2°47.149 270.7 12.9 268 -999
2007-03-16 08:44:15 51°12.043 2°47.12 271 12.9 268 -999
2007-03-16 08:44:20 51°12.043 2°47.092 270.5 12.9 269 -999
2007-03-16 08:44:24 51°12.043 2°47.069 269.6 12.9 268 -999
2007-03-16 08:44:30 51°12.042 2°47.035 269.2 12.9 267 -999
2007-03-16 08:44:35 51°12.041 2°47.006 267.6 12.9 267 -999
2007-03-16 08:44:39 51°12.039 2°46.984 266.5 12.9 266 14.7
2007-03-16 08:44:44 51°12.038 2°46.956 266.3 12.9 264 14.8
2007-03-16 08:44:49 51°12.036 2°46.927 265.6 12.9 264 14.8
2007-03-16 08:44:54 51°12.033 2°46.899 265.5 12.9 262 14.8
2007-03-16 08:44:58 51°12.031 2°46.877 265 12.8 262 14.8
2007-03-16 08:45:02 51°12.029 2°46.854 264.4 12.8 262 14.8
2007-03-16 08:45:07 51°12.026 2°46.826 263.8 12.9 261 14.9
2007-03-16 08:45:13 51°12.023 2°46.793 263.3 12.9 261 14.8
2007-03-16 08:45:18 51°12.02 2°46.765 263.3 12.8 260 14.9
2007-03-16 08:45:23 51°12.017 2°46.737 262.8 12.9 260 14.9
2007-03-16 08:45:27 51°12.015 2°46.714 262.7 12.9 261 15
2007-03-16 08:45:31 51°12.012 2°46.692 262.7 12.9 261 14.9
2007-03-16 08:45:37 51°12.009 2°46.658 262.9 12.8 261 15
2007-03-16 08:45:41 51°12.006 2°46.636 263.1 12.8 261 15
2007-03-16 08:45:47 51°12.003 2°46.603 263 12.8 261 15
2007-03-16 08:45:51 51°12 2°46.58 262.7 12.8 260 15
2007-03-16 08:45:57 51°11.997 2°46.547 262.6 12.7 259 15
2007-03-16 08:46:02 51°11.993 2°46.52 262 12.7 259 15
2007-03-16 08:46:07 51°11.99 2°46.492 262 12.7 259 15
2007-03-16 08:46:10 51°11.988 2°46.476 261.9 12.7 259 15
2007-03-16 08:46:16 51°11.985 2°46.443 262.3 12.6 260 15
2007-03-16 08:46:21 51°11.981 2°46.416 262.6 12.5 260 15
2007-03-16 08:46:25 51°11.979 2°46.394 262.7 12.6 260 15
2007-03-16 08:46:31 51°11.975 2°46.361 262.8 12.6 260 15
2007-03-16 08:46:35 51°11.973 2°46.339 263.1 12.5 260 15
2007-03-16 08:46:40 51°11.97 2°46.312 263 12.5 260 15
2007-03-16 08:46:45 51°11.967 2°46.284 263 12.6 260 15
2007-03-16 08:46:50 51°11.964 2°46.257 262.8 12.6 260 15.1
2007-03-16 08:46:55 51°11.961 2°46.23 262.7 12.5 260 15
2007-03-16 08:47:01 51°11.957 2°46.197 262.8 12.5 261 15
2007-03-16 08:47:05 51°11.955 2°46.176 263.1 12.5 260 15
2007-03-16 08:47:11 51°11.952 2°46.143 263.4 12.5 261 15
2007-03-16 08:47:16 51°11.949 2°46.116 263.3 12.5 260 15
2007-03-16 08:47:21 51°11.946 2°46.088 263.1 12.5 260 15
2007-03-16 08:47:24 51°11.944 2°46.072 263 12.5 260 15
2007-03-16 08:47:30 51°11.94 2°46.04 262.7 12.5 260 15
2007-03-16 08:47:35 51°11.937 2°46.012 262.8 12.5 261 15
2007-03-16 08:47:40 51°11.934 2°45.985 263.1 12.5 260 15
2007-03-16 08:47:45 51°11.931 2°45.958 263.2 12.5 260 15
2007-03-16 08:47:50 51°11.928 2°45.93 263 12.5 260 15
2007-03-16 08:47:55 51°11.925 2°45.903 263.2 12.5 260 15
2007-03-16 08:48:01 51°11.922 2°45.871 263 12.5 260 14.9
2007-03-16 08:48:05 51°11.919 2°45.849 262.8 12.5 260 15
2007-03-16 08:48:11 51°11.915 2°45.816 262.8 12.5 260 15
2007-03-16 08:48:16 51°11.913 2°45.789 262.7 12.5 260 15
2007-03-16 08:48:21 51°11.91 2°45.762 262.8 12.5 260 15
2007-03-16 08:48:26 51°11.907 2°45.735 263.1 12.5 261 15
2007-03-16 08:48:30 51°11.904 2°45.713 262.9 12.5 259 15
2007-03-16 08:48:35 51°11.901 2°45.686 262.7 12.5 260 15
2007-03-16 08:48:39 51°11.898 2°45.664 262.7 12.5 260 14.9
2007-03-16 08:48:45 51°11.895 2°45.632 262.8 12.5 260 14.9
2007-03-16 08:48:50 51°11.892 2°45.605 263 12.5 260 14.9
2007-03-16 08:48:55 51°11.889 2°45.577 263 12.5 260 14.9
2007-03-16 08:49:01 51°11.885 2°45.545 262.8 12.5 260 14.9
2007-03-16 08:49:06 51°11.882 2°45.518 262.7 12.5 259 14.8
2007-03-16 08:49:11 51°11.879 2°45.491 262.7 12.5 261 14.8
2007-03-16 08:49:16 51°11.876 2°45.464 262.9 12.5 259 14.9
2007-03-16 08:49:21 51°11.873 2°45.436 262.8 12.5 260 14.8
2007-03-16 08:49:25 51°11.871 2°45.415 262.9 12.5 260 14.8
2007-03-16 08:49:31 51°11.867 2°45.382 262.8 12.5 260 14.7
2007-03-16 08:49:36 51°11.864 2°45.355 262.6 12.4 260 14.7
2007-03-16 08:49:41 51°11.86 2°45.328 262.4 12.5 259 14.7
2007-03-16 08:49:46 51°11.857 2°45.301 262.3 12.5 260 14.7
2007-03-16 08:49:51 51°11.854 2°45.274 262.4 12.4 259 14.7
2007-03-16 08:49:56 51°11.851 2°45.247 262.4 12.5 260 14.6
2007-03-16 08:50:01 51°11.848 2°45.22 262.4 12.5 260 14.6
2007-03-16 08:50:05 51°11.846 2°45.198 262.7 12.4 260 14.6
2007-03-16 08:50:10 51°11.843 2°45.171 262.7 12.4 260 14.5
2007-03-16 08:50:15 51°11.84 2°45.144 263 12.5 260 14.5
2007-03-16 08:50:20 51°11.837 2°45.117 262.7 12.4 260 14.5
2007-03-16 08:50:25 51°11.834 2°45.09 262.8 12.4 260 14.4
2007-03-16 08:50:30 51°11.831 2°45.063 262.7 12.4 259 14.3
2007-03-16 08:50:35 51°11.827 2°45.036 262.2 12.5 260 14.4
2007-03-16 08:50:41 51°11.824 2°45.004 262.7 12.3 260 14.3
2007-03-16 08:50:45 51°11.821 2°44.982 262.2 12.4 259 14.1
2007-03-16 08:50:50 51°11.818 2°44.955 262 12.4 260 14
2007-03-16 08:50:55 51°11.815 2°44.929 262.3 12.4 259 14
2007-03-16 08:51:00 51°11.812 2°44.902 262.1 12.4 259 13.9
2007-03-16 08:51:05 51°11.808 2°44.875 262.1 12.4 259 13.9
2007-03-16 08:51:10 51°11.805 2°44.848 262 12.4 260 14
2007-03-16 08:51:15 51°11.802 2°44.821 262 12.4 259 14
2007-03-16 08:51:20 51°11.799 2°44.795 261.9 12.4 260 14
2007-03-16 08:51:25 51°11.796 2°44.768 262.3 12.4 259 13.8
2007-03-16 08:51:30 51°11.793 2°44.741 262.4 12.4 260 13.8
2007-03-16 08:51:35 51°11.79 2°44.714 262.4 12.5 260 13.7
2007-03-16 08:51:41 51°11.786 2°44.681 262.4 12.5 260 13.8
2007-03-16 08:51:45 51°11.784 2°44.66 262.7 12.4 260 13.8
2007-03-16 08:51:51 51°11.78 2°44.627 262.3 12.4 260 13.9
2007-03-16 08:51:56 51°11.777 2°44.6 262.3 12.5 259 13.8
2007-03-16 08:52:01 51°11.774 2°44.573 262.4 12.5 260 13.7
2007-03-16 08:52:05 51°11.771 2°44.552 262.5 12.5 260 13.7
2007-03-16 08:52:11 51°11.768 2°44.519 262.5 12.4 260 13.7
2007-03-16 08:52:16 51°11.765 2°44.492 262.6 12.4 259 13.7
2007-03-16 08:52:21 51°11.762 2°44.465 262.7 12.4 260 13.8
2007-03-16 08:52:25 51°11.759 2°44.444 262.5 12.4 259 13.7
2007-03-16 08:52:31 51°11.755 2°44.411 262.2 12.4 260 13.6
2007-03-16 08:52:36 51°11.752 2°44.384 262 12.4 259 13.6
2007-03-16 08:52:41 51°11.749 2°44.357 261.8 12.5 259 13.4
2007-03-16 08:52:45 51°11.746 2°44.336 262.2 12.4 260 13.5
2007-03-16 08:52:51 51°11.742 2°44.303 262.2 12.4 259 13.5
2007-03-16 08:52:56 51°11.739 2°44.276 262.1 12.4 259 13.5
2007-03-16 08:53:01 51°11.736 2°44.249 262 12.5 259 13.5
2007-03-16 08:53:05 51°11.733 2°44.228 262 12.4 259 13.4
2007-03-16 08:53:10 51°11.73 2°44.201 262 12.4 260 13.4
2007-03-16 08:53:15 51°11.727 2°44.174 262 12.5 259 13.4
2007-03-16 08:53:19 51°11.724 2°44.152 262 12.5 260 13.4
2007-03-16 08:53:25 51°11.72 2°44.12 262 12.5 259 13.3
2007-03-16 08:53:30 51°11.717 2°44.093 262 12.4 260 13.4
2007-03-16 08:53:36 51°11.713 2°44.06 261.7 12.5 258 13.2
2007-03-16 08:53:40 51°11.711 2°44.039 262 12.4 260 13.2
2007-03-16 08:53:45 51°11.707 2°44.012 262.4 12.4 259 13.2
2007-03-16 08:53:51 51°11.704 2°43.979 262.2 12.4 260 13.1
2007-03-16 08:53:56 51°11.701 2°43.952 262.7 12.4 259 13.1
2007-03-16 08:54:01 51°11.698 2°43.925 262.6 12.5 260 13.2
2007-03-16 08:54:05 51°11.695 2°43.904 262.5 12.4 260 13.2
2007-03-16 08:54:11 51°11.691 2°43.871 262.6 12.4 260 13.1
2007-03-16 08:54:16 51°11.688 2°43.844 262.5 12.5 260 13.2
2007-03-16 08:54:21 51°11.685 2°43.817 262.5 12.4 259 13.1
2007-03-16 08:54:25 51°11.683 2°43.795 262.4 12.5 260 13.1
2007-03-16 08:54:30 51°11.68 2°43.768 262.3 12.4 259 13.1
2007-03-16 08:54:36 51°11.676 2°43.736 262 12.4 259 13.1
2007-03-16 08:54:41 51°11.673 2°43.709 262 12.4 259 13
2007-03-16 08:54:45 51°11.67 2°43.687 262 12.4 259 13.1
2007-03-16 08:54:51 51°11.666 2°43.655 262 12.4 260 13
2007-03-16 08:54:56 51°11.663 2°43.628 262.3 12.4 260 13.1
2007-03-16 08:55:01 51°11.66 2°43.601 262.7 12.5 260 13
2007-03-16 08:55:05 51°11.658 2°43.579 262.6 12.4 259 13
2007-03-16 08:55:11 51°11.654 2°43.547 262.3 12.5 260 12.9
2007-03-16 08:55:15 51°11.651 2°43.525 262.2 12.4 259 12.8
2007-03-16 08:55:21 51°11.648 2°43.493 261.8 12.4 260 12.8
2007-03-16 08:55:25 51°11.645 2°43.471 262 12.4 259 12.8
2007-03-16 08:55:30 51°11.642 2°43.444 262 12.4 260 12.7
2007-03-16 08:55:35 51°11.639 2°43.417 262.4 12.4 260 12.7
2007-03-16 08:55:40 51°11.636 2°43.39 262.4 12.4 260 12.7
2007-03-16 08:55:45 51°11.633 2°43.363 262.4 12.4 260 12.6
2007-03-16 08:55:50 51°11.629 2°43.336 262.1 12.5 259 12.8
2007-03-16 08:55:56 51°11.626 2°43.304 262.1 12.4 260 12.6
2007-03-16 08:56:01 51°11.623 2°43.276 262.1 12.5 260 12.6
2007-03-16 08:56:05 51°11.62 2°43.255 262.3 12.5 260 12.6
2007-03-16 08:56:11 51°11.616 2°43.222 262.3 12.5 260 12.7
2007-03-16 08:56:16 51°11.613 2°43.195 262.3 12.5 260 12.7
2007-03-16 08:56:20 51°11.611 2°43.173 262.6 12.5 260 12.9
2007-03-16 08:56:25 51°11.609 2°43.146 262.9 12.5 261 12.8
2007-03-16 08:56:30 51°11.605 2°43.119 262.9 12.5 260 12.7
2007-03-16 08:56:36 51°11.602 2°43.086 262.7 12.5 261 12.8
2007-03-16 08:56:41 51°11.599 2°43.059 262.5 12.5 260 12.7
2007-03-16 08:56:45 51°11.597 2°43.037 262 12.5 260 12.8
2007-03-16 08:56:50 51°11.593 2°43.01 262 12.4 259 12.8
2007-03-16 08:56:56 51°11.59 2°42.978 261.7 12.5 260 12.7
2007-03-16 08:57:01 51°11.587 2°42.951 261.7 12.5 259 12.8
2007-03-16 08:57:05 51°11.584 2°42.929 261.8 12.5 260 12.8
2007-03-16 08:57:11 51°11.58 2°42.897 261.8 12.5 260 12.9
2007-03-16 08:57:16 51°11.577 2°42.869 261.8 12.5 260 12.9
2007-03-16 08:57:21 51°11.574 2°42.843 261.9 12.4 259 12.9
2007-03-16 08:57:25 51°11.572 2°42.821 261.8 12.4 260 12.8
2007-03-16 08:57:30 51°11.569 2°42.794 261.7 12.4 260 12.9
2007-03-16 08:57:36 51°11.565 2°42.762 261.7 12.4 260 12.8
2007-03-16 08:57:41 51°11.562 2°42.735 261.6 12.4 259 13
2007-03-16 08:57:45 51°11.56 2°42.713 261.7 12.4 260 13.1
2007-03-16 08:57:50 51°11.556 2°42.686 261.7 12.4 259 13.1
2007-03-16 08:57:56 51°11.553 2°42.654 261.6 12.4 260 13.1
2007-03-16 08:58:01 51°11.55 2°42.627 261.9 12.4 260 13.2
2007-03-16 08:58:05 51°11.548 2°42.606 262.1 12.4 260 13.2
2007-03-16 08:58:10 51°11.545 2°42.579 262.3 12.4 261 13.2
2007-03-16 08:58:16 51°11.541 2°42.546 262.4 12.4 260 13.1
2007-03-16 08:58:21 51°11.538 2°42.519 262 12.4 259 13.1
2007-03-16 08:58:25 51°11.535 2°42.498 262 12.3 259 13.1
2007-03-16 08:58:30 51°11.532 2°42.471 260.5 12.4 257 13.1
2007-03-16 08:58:35 51°11.528 2°42.445 259.2 12.4 257 13.1
2007-03-16 08:58:41 51°11.522 2°42.413 258.1 12.4 254 13.2
2007-03-16 08:58:45 51°11.519 2°42.392 257.4 12.4 255 13.2
2007-03-16 08:58:50 51°11.513 2°42.366 256.6 12.4 253 13.1
2007-03-16 08:58:55 51°11.509 2°42.339 256.5 12.4 254 13.1
2007-03-16 08:59:01 51°11.503 2°42.308 256.3 12.4 253 13.2
2007-03-16 08:59:05 51°11.499 2°42.287 256 12.4 254 13.2
2007-03-16 08:59:10 51°11.494 2°42.261 255.9 12.5 253 13.2
2007-03-16 08:59:16 51°11.488 2°42.229 255.9 12.5 254 13.2
2007-03-16 08:59:21 51°11.483 2°42.203 256 12.5 253 13.2
2007-03-16 08:59:25 51°11.479 2°42.181 256.2 12.5 254 13.2
2007-03-16 08:59:30 51°11.474 2°42.155 255.9 12.5 253 13.2
2007-03-16 08:59:35 51°11.469 2°42.129 255.9 12.4 253 13.3
2007-03-16 08:59:41 51°11.463 2°42.097 255.5 12.5 253 13.3
2007-03-16 08:59:45 51°11.459 2°42.076 255.4 12.5 253 13.3
2007-03-16 08:59:50 51°11.454 2°42.05 255.7 12.5 253 13.4
2007-03-16 08:59:56 51°11.448 2°42.018 255.7 12.5 253 13.4
2007-03-16 09:00:00 51°11.444 2°41.997 255.8 12.5 253 13.4
2007-03-16 09:00:05 51°11.439 2°41.97 255.8 12.5 254 13.5
2007-03-16 09:00:10 51°11.434 2°41.944 256.1 12.5 254 13.5
2007-03-16 09:00:15 51°11.429 2°41.917 256.1 12.5 254 13.6
2007-03-16 09:00:20 51°11.425 2°41.891 256.2 12.5 254 13.6
2007-03-16 09:00:25 51°11.42 2°41.864 256 12.5 254 13.7
2007-03-16 09:00:30 51°11.415 2°41.838 256 12.5 253 13.7
2007-03-16 09:00:35 51°11.41 2°41.811 255.9 12.5 254 13.8
2007-03-16 09:00:40 51°11.405 2°41.785 256.2 12.5 254 13.8
2007-03-16 09:00:45 51°11.4 2°41.759 256.2 12.5 254 13.8
2007-03-16 09:00:50 51°11.395 2°41.732 256.3 12.5 253 13.9
2007-03-16 09:00:55 51°11.391 2°41.706 255.9 12.4 254 13.9
2007-03-16 09:01:01 51°11.385 2°41.674 256.2 12.4 253 14
2007-03-16 09:01:05 51°11.381 2°41.653 256.3 12.4 255 14
2007-03-16 09:01:10 51°11.376 2°41.627 256.5 12.4 253 14.1
2007-03-16 09:01:15 51°11.371 2°41.6 256.4 12.4 254 14.1
2007-03-16 09:01:21 51°11.365 2°41.569 256.3 12.4 253 14.2
2007-03-16 09:01:25 51°11.361 2°41.548 255.9 12.4 254 14.1
2007-03-16 09:01:30 51°11.357 2°41.522 256.1 12.4 254 14.2
2007-03-16 09:01:35 51°11.352 2°41.496 256.3 12.3 254 14.2
2007-03-16 09:01:41 51°11.346 2°41.465 256.3 12.3 254 14.3
2007-03-16 09:01:45 51°11.342 2°41.444 256.3 12.3 254 14.4
2007-03-16 09:01:50 51°11.337 2°41.417 256.3 12.3 254 14.4
2007-03-16 09:01:55 51°11.332 2°41.391 256.3 12.3 254 14.5
2007-03-16 09:02:00 51°11.327 2°41.365 256.2 12.3 253 14.4
2007-03-16 09:02:05 51°11.322 2°41.339 256 12.3 254 14.5
2007-03-16 09:02:11 51°11.317 2°41.308 256.2 12.3 254 14.6
2007-03-16 09:02:15 51°11.313 2°41.287 255.9 12.3 254 14.6
2007-03-16 09:02:19 51°11.309 2°41.267 256 12.3 253 14.6
2007-03-16 09:02:25 51°11.303 2°41.235 255.6 12.3 254 14.7
2007-03-16 09:02:30 51°11.299 2°41.209 256.4 12.3 253 14.7
2007-03-16 09:02:35 51°11.294 2°41.183 256.2 12.3 254 14.8
2007-03-16 09:02:39 51°11.29 2°41.162 256.2 12.4 254 14.9
2007-03-16 09:02:45 51°11.284 2°41.131 256.2 12.4 254 15.1
2007-03-16 09:02:50 51°11.28 2°41.105 256 12.4 253 15.1
2007-03-16 09:02:55 51°11.275 2°41.078 255.6 12.4 254 15.3
2007-03-16 09:03:01 51°11.269 2°41.047 255.9 12.3 253 15.4
2007-03-16 09:03:05 51°11.265 2°41.026 256 12.3 255 15.4
2007-03-16 09:03:10 51°11.261 2°41 256.2 12.3 253 15.5
2007-03-16 09:03:15 51°11.256 2°40.974 256.1 12.3 255 15.6
2007-03-16 09:03:21 51°11.25 2°40.943 256.1 12.3 253 15.6
2007-03-16 09:03:25 51°11.247 2°40.922 255.9 12.3 254 15.6
2007-03-16 09:03:30 51°11.242 2°40.896 255.9 12.3 254 15.6
2007-03-16 09:03:35 51°11.237 2°40.869 255.9 12.3 255 16
2007-03-16 09:03:41 51°11.232 2°40.838 256.1 12.3 254 16.1
2007-03-16 09:03:45 51°11.228 2°40.817 256.5 12.3 255 16.1
2007-03-16 09:03:50 51°11.224 2°40.791 256.5 12.3 255 16.1
2007-03-16 09:03:55 51°11.219 2°40.765 256.7 12.3 255 16.2
2007-03-16 09:04:01 51°11.214 2°40.733 256.2 12.3 254 16.4
2007-03-16 09:04:05 51°11.21 2°40.712 256.1 12.3 255 16.4
2007-03-16 09:04:10 51°11.205 2°40.686 256.4 12.3 255 16.5
2007-03-16 09:04:15 51°11.201 2°40.66 256.3 12.3 255 16.5
2007-03-16 09:04:20 51°11.196 2°40.634 256.7 12.3 255 16.5
2007-03-16 09:04:25 51°11.192 2°40.608 256.7 12.3 255 16.6
2007-03-16 09:04:30 51°11.187 2°40.581 256.4 12.3 255 16.6
2007-03-16 09:04:35 51°11.183 2°40.555 256.4 12.3 255 16.7
2007-03-16 09:04:40 51°11.179 2°40.529 256.6 12.3 255 16.8
2007-03-16 09:04:45 51°11.174 2°40.503 256.7 12.3 254 16.9
2007-03-16 09:04:50 51°11.169 2°40.477 256.4 12.2 254 17
2007-03-16 09:04:55 51°11.164 2°40.451 255.3 12.2 252 17
2007-03-16 09:05:00 51°11.158 2°40.426 253.9 12.2 251 17
2007-03-16 09:05:05 51°11.153 2°40.401 252.8 12.2 249 17.2
2007-03-16 09:05:10 51°11.147 2°40.375 251.6 12.3 250 17.1
2007-03-16 09:05:15 51°11.141 2°40.35 251.5 12.2 249 17.2
2007-03-16 09:05:19 51°11.136 2°40.33 251.1 12.3 249 17.2
2007-03-16 09:05:25 51°11.128 2°40.299 251.3 12.3 249 17.3
2007-03-16 09:05:30 51°11.122 2°40.274 251.1 12.3 249 17.4
2007-03-16 09:05:35 51°11.116 2°40.249 250.8 12.3 248 17.5
2007-03-16 09:05:40 51°11.11 2°40.224 250.8 12.3 249 17.5
2007-03-16 09:05:45 51°11.104 2°40.198 251.1 12.3 249 17.6
2007-03-16 09:05:50 51°11.098 2°40.173 251.3 12.3 249 17.7
2007-03-16 09:05:55 51°11.092 2°40.148 251.3 12.3 249 17.8
2007-03-16 09:06:00 51°11.086 2°40.122 251.4 12.3 249 17.8
2007-03-16 09:06:05 51°11.08 2°40.097 251.4 12.3 249 17.8
2007-03-16 09:06:10 51°11.074 2°40.071 251.4 12.3 249 18
2007-03-16 09:06:15 51°11.068 2°40.046 251.6 12.2 248 18
2007-03-16 09:06:20 51°11.061 2°40.022 250.1 12.2 245 18
2007-03-16 09:06:25 51°11.052 2°39.998 247.1 12.3 242 18
2007-03-16 09:06:30 51°11.044 2°39.974 244.9 12.2 241 18
2007-03-16 09:06:35 51°11.035 2°39.952 243.2 12.2 237 18.1
2007-03-16 09:06:40 51°11.026 2°39.929 240.6 12.2 236 18.1
2007-03-16 09:06:45 51°11.015 2°39.909 237.4 12.2 229 18.1
2007-03-16 09:06:50 51°11.004 2°39.889 234.3 12.2 229 18.1
2007-03-16 09:06:56 51°10.989 2°39.866 231.8 12.3 226 18.2
2007-03-16 09:06:59 51°10.982 2°39.854 230.6 12.3 226 18.2
2007-03-16 09:07:05 51°10.967 2°39.832 228.7 12.2 223 18.2
2007-03-16 09:07:10 51°10.955 2°39.813 227.4 12.3 222 18.2
2007-03-16 09:07:15 51°10.942 2°39.795 226.5 12.3 222 18.2
2007-03-16 09:07:21 51°10.927 2°39.774 226.4 12.3 221 18.2
2007-03-16 09:07:25 51°10.916 2°39.76 225.8 12.3 221 18.2
2007-03-16 09:07:30 51°10.903 2°39.742 225.2 12.4 219 18.1
2007-03-16 09:07:36 51°10.887 2°39.722 224.1 12.4 219 18.1
2007-03-16 09:07:41 51°10.874 2°39.704 223.8 12.4 219 18
2007-03-16 09:07:46 51°10.86 2°39.688 223.7 12.3 218 17.9
2007-03-16 09:07:50 51°10.849 2°39.674 222.9 12.4 218 17.8
2007-03-16 09:07:55 51°10.836 2°39.657 223.2 12.4 219 17.8
2007-03-16 09:08:01 51°10.82 2°39.637 223.2 12.5 217 17.7
2007-03-16 09:08:06 51°10.806 2°39.62 222.8 12.4 219 17.8
2007-03-16 09:08:11 51°10.793 2°39.603 223.2 12.3 218 17.7
2007-03-16 09:08:16 51°10.779 2°39.586 222.9 12.4 219 17.5
2007-03-16 09:08:21 51°10.766 2°39.569 223.4 12.5 218 17.5
2007-03-16 09:08:26 51°10.752 2°39.552 223.5 12.4 219 17.5
2007-03-16 09:08:31 51°10.739 2°39.535 223.5 12.3 219 17.4
2007-03-16 09:08:36 51°10.725 2°39.518 223.3 12.4 219 17.4
2007-03-16 09:08:41 51°10.712 2°39.5 223.7 12.5 219 17.4
2007-03-16 09:08:46 51°10.699 2°39.483 223.9 12.5 219 17.4
2007-03-16 09:08:51 51°10.685 2°39.466 223.6 12.5 219 17.3
2007-03-16 09:08:56 51°10.672 2°39.448 223.6 12.4 219 17.4
2007-03-16 09:09:01 51°10.659 2°39.431 224 12.4 220 17.4
2007-03-16 09:09:06 51°10.645 2°39.414 223.8 12.5 218 17.4
2007-03-16 09:09:11 51°10.632 2°39.396 223.9 12.5 221 17.4
2007-03-16 09:09:16 51°10.618 2°39.379 224.3 12.5 219 17.5
2007-03-16 09:09:20 51°10.608 2°39.365 224.1 12.4 220 17.5
2007-03-16 09:09:26 51°10.592 2°39.344 224.3 12.4 219 17.5
2007-03-16 09:09:31 51°10.579 2°39.326 224.2 12.5 220 17.6
2007-03-16 09:09:36 51°10.565 2°39.308 224.6 12.4 220 17.7
2007-03-16 09:09:40 51°10.555 2°39.294 224.5 12.5 220 17.8
2007-03-16 09:09:46 51°10.539 2°39.273 224.2 12.5 220 17.8
2007-03-16 09:09:51 51°10.525 2°39.256 224.3 12.4 220 17.8
2007-03-16 09:09:56 51°10.512 2°39.238 224.2 12.5 219 17.8
2007-03-16 09:10:01 51°10.499 2°39.221 223.9 12.6 220 17.9
2007-03-16 09:10:06 51°10.485 2°39.203 224.1 12.5 220 17.9
2007-03-16 09:10:11 51°10.472 2°39.186 223.8 12.5 219 17.9
2007-03-16 09:10:16 51°10.458 2°39.168 223.7 12.5 220 17.8
2007-03-16 09:10:21 51°10.445 2°39.151 224.2 12.5 220 17.7
2007-03-16 09:10:26 51°10.432 2°39.133 224.5 12.5 220 17.7
2007-03-16 09:10:31 51°10.419 2°39.115 224.7 12.4 220 17.6
2007-03-16 09:10:36 51°10.405 2°39.098 224.2 12.6 220 17.5
2007-03-16 09:10:41 51°10.392 2°39.08 224.5 12.6 221 17.6
2007-03-16 09:10:46 51°10.379 2°39.062 224.9 12.4 220 17.8
2007-03-16 09:10:51 51°10.365 2°39.044 224.4 12.5 220 17.6
2007-03-16 09:10:56 51°10.352 2°39.027 224.5 12.6 220 17.7
2007-03-16 09:11:01 51°10.339 2°39.009 225 12.5 220 18
2007-03-16 09:11:06 51°10.325 2°38.991 225 12.5 219 17.9
2007-03-16 09:11:11 51°10.312 2°38.973 224.3 12.6 220 17.9
2007-03-16 09:11:16 51°10.299 2°38.956 224.2 12.6 220 17.7
2007-03-16 09:11:21 51°10.285 2°38.939 224.5 12.6 219 17.7
2007-03-16 09:11:26 51°10.272 2°38.921 224 12.5 219 17.6
2007-03-16 09:11:31 51°10.258 2°38.903 224.3 12.5 220 17.8
2007-03-16 09:11:36 51°10.245 2°38.885 224.7 12.5 221 17.9
2007-03-16 09:11:41 51°10.232 2°38.867 225.3 12.6 221 17.7
2007-03-16 09:11:46 51°10.219 2°38.847 226.3 12.6 223 17.6
2007-03-16 09:11:51 51°10.206 2°38.829 226.8 12.5 222 17.6
2007-03-16 09:11:56 51°10.194 2°38.81 227 12.6 223 17.7
2007-03-16 09:12:01 51°10.181 2°38.791 227.1 12.6 223 17.8
2007-03-16 09:12:06 51°10.168 2°38.772 227.2 12.6 223 17.7
2007-03-16 09:12:11 51°10.155 2°38.754 227.1 12.6 222 17.7
2007-03-16 09:12:16 51°10.142 2°38.735 227 12.6 223 17.8
2007-03-16 09:12:21 51°10.129 2°38.716 226.5 12.6 222 17.6
2007-03-16 09:12:26 51°10.116 2°38.697 226.4 12.6 222 17.6
2007-03-16 09:12:31 51°10.103 2°38.679 226.4 12.6 222 17.7
2007-03-16 09:12:36 51°10.09 2°38.661 226 12.7 221 17.7
2007-03-16 09:12:41 51°10.077 2°38.641 226.4 12.6 223 17.7
2007-03-16 09:12:46 51°10.064 2°38.623 226.7 12.6 221 17.6
2007-03-16 09:12:51 51°10.051 2°38.604 226.6 12.6 223 17.6
2007-03-16 09:12:56 51°10.038 2°38.586 226.5 12.5 221 17.6
2007-03-16 09:13:01 51°10.025 2°38.568 226.4 12.5 222 17.7
2007-03-16 09:13:06 51°10.012 2°38.55 226 12.5 221 17.7
2007-03-16 09:13:11 51°9.999 2°38.531 225.8 12.5 222 17.7
2007-03-16 09:13:16 51°9.986 2°38.513 226.2 12.5 221 17.6
2007-03-16 09:13:21 51°9.973 2°38.495 225.7 12.5 221 17.5
2007-03-16 09:13:26 51°9.96 2°38.477 225.7 12.4 221 17.4
2007-03-16 09:13:31 51°9.947 2°38.459 225.7 12.4 221 17.3
2007-03-16 09:13:36 51°9.933 2°38.442 225.4 12.5 220 17.3
2007-03-16 09:13:41 51°9.92 2°38.423 225.5 12.5 222 17.2
2007-03-16 09:13:46 51°9.907 2°38.405 225.9 12.5 221 17.2
2007-03-16 09:13:51 51°9.894 2°38.387 226.1 12.4 221 17.1
2007-03-16 09:13:56 51°9.881 2°38.369 225.9 12.5 221 17.1
2007-03-16 09:14:00 51°9.871 2°38.354 225.7 12.5 221 17
2007-03-16 09:14:06 51°9.855 2°38.333 226 12.5 221 16.9
2007-03-16 09:14:11 51°9.842 2°38.314 226.1 12.5 222 16.8
2007-03-16 09:14:16 51°9.829 2°38.296 226.4 12.5 221 16.7
2007-03-16 09:14:21 51°9.816 2°38.278 226.4 12.5 222 16.7
2007-03-16 09:14:25 51°9.806 2°38.264 226.4 12.5 221 16.6
2007-03-16 09:14:31 51°9.79 2°38.242 225.9 12.5 221 16.6
2007-03-16 09:14:36 51°9.777 2°38.224 226.2 12.5 221 16.4
2007-03-16 09:14:41 51°9.764 2°38.206 226.1 12.5 221 16.4
2007-03-16 09:14:45 51°9.754 2°38.191 226.2 12.5 222 16.2
2007-03-16 09:14:51 51°9.738 2°38.17 226.4 12.4 221 16.2
2007-03-16 09:14:56 51°9.725 2°38.152 226.2 12.4 221 16.1
2007-03-16 09:15:01 51°9.711 2°38.134 226 12.5 220 16
2007-03-16 09:15:06 51°9.698 2°38.116 225.9 12.4 221 15.9
2007-03-16 09:15:11 51°9.685 2°38.098 226.2 12.4 221 15.8
2007-03-16 09:15:16 51°9.672 2°38.08 226.3 12.4 221 15.7
2007-03-16 09:15:21 51°9.659 2°38.062 226.3 12.4 221 15.5
2007-03-16 09:15:26 51°9.646 2°38.044 225.9 12.5 220 15.5
2007-03-16 09:15:31 51°9.633 2°38.026 225.8 12.5 221 15.4
2007-03-16 09:15:36 51°9.62 2°38.009 225.8 12.4 220 15.3
2007-03-16 09:15:41 51°9.607 2°37.99 226 12.4 221 15.1
2007-03-16 09:15:45 51°9.597 2°37.976 226.3 12.4 221 15
2007-03-16 09:15:51 51°9.581 2°37.955 226.3 12.4 221 15
2007-03-16 09:15:56 51°9.568 2°37.937 225.8 12.4 221 14.8
2007-03-16 09:16:00 51°9.558 2°37.922 226.1 12.4 221 14.8
2007-03-16 09:16:06 51°9.542 2°37.901 226.6 12.4 221 14.7
2007-03-16 09:16:11 51°9.529 2°37.883 226.4 12.5 221 14.6
2007-03-16 09:16:16 51°9.517 2°37.864 226.4 12.4 222 14.5
2007-03-16 09:16:21 51°9.504 2°37.846 226.7 12.4 222 14.5
2007-03-16 09:16:26 51°9.491 2°37.827 227.1 12.4 223 14.3
2007-03-16 09:16:31 51°9.479 2°37.809 227.8 12.4 223 14.3
2007-03-16 09:16:36 51°9.466 2°37.79 228.4 12.4 224 14.3
2007-03-16 09:16:41 51°9.454 2°37.77 229.1 12.4 226 14.2
2007-03-16 09:16:46 51°9.443 2°37.75 230.8 12.3 227 14.2
2007-03-16 09:16:51 51°9.432 2°37.731 232 12 228 14.2
2007-03-16 09:16:56 51°9.421 2°37.712 233 11.4 229 14.1
2007-03-16 09:17:01 51°9.411 2°37.695 233.1 10.7 227 14.1
2007-03-16 09:17:06 51°9.403 2°37.678 233.5 9.9 229 14.1
2007-03-16 09:17:11 51°9.394 2°37.663 234.2 9.2 228 14.1
2007-03-16 09:17:16 51°9.387 2°37.649 235 8.6 230 14
2007-03-16 09:17:21 51°9.38 2°37.635 236 8.1 231 14.1
2007-03-16 09:17:26 51°9.373 2°37.622 236.7 7.6 230 14.1
2007-03-16 09:17:31 51°9.367 2°37.61 237 7.3 231 14.1
2007-03-16 09:17:36 51°9.361 2°37.599 237.7 6.9 231 14.1
2007-03-16 09:17:41 51°9.355 2°37.587 237.7 6.6 231 14
2007-03-16 09:17:46 51°9.35 2°37.577 237.7 6.3 229 14
2007-03-16 09:17:51 51°9.345 2°37.567 237.3 6 231 14
2007-03-16 09:17:56 51°9.339 2°37.557 237.1 5.8 228 14
2007-03-16 09:18:01 51°9.334 2°37.548 236.6 5.6 229 13.9
2007-03-16 09:18:06 51°9.329 2°37.539 236.5 5.4 228 13.9
2007-03-16 09:18:11 51°9.324 2°37.531 235.8 5.2 228 14
2007-03-16 09:18:16 51°9.319 2°37.523 235.4 5.1 226 13.9
2007-03-16 09:18:21 51°9.315 2°37.515 234.9 5 225 13.9
2007-03-16 09:18:26 51°9.309 2°37.508 234.4 4.8 225 13.9
2007-03-16 09:18:31 51°9.304 2°37.5 234 4.7 224 13.8
2007-03-16 09:18:36 51°9.3 2°37.493 233.6 4.6 224 13.8
2007-03-16 09:18:40 51°9.296 2°37.488 233.4 4.5 223 13.8
2007-03-16 09:18:46 51°9.291 2°37.48 233.3 4.4 223 13.7
2007-03-16 09:18:51 51°9.286 2°37.473 232.9 4.4 223 13.7
2007-03-16 09:18:56 51°9.282 2°37.467 233.1 4.3 223 13.7
2007-03-16 09:19:01 51°9.278 2°37.461 233.4 4.2 223 13.7
2007-03-16 09:19:06 51°9.274 2°37.454 233.9 4.1 224 13.7
2007-03-16 09:19:11 51°9.27 2°37.448 234.6 4.1 224 13.7
2007-03-16 09:19:16 51°9.266 2°37.442 235.1 4 225 13.7
2007-03-16 09:19:21 51°9.262 2°37.435 236.1 3.9 226 13.7
2007-03-16 09:19:26 51°9.259 2°37.429 237.7 3.9 230 13.6
2007-03-16 09:19:31 51°9.255 2°37.422 239.3 3.8 231 13.6
2007-03-16 09:19:36 51°9.252 2°37.416 241.3 3.7 234 13.6
2007-03-16 09:19:41 51°9.249 2°37.409 243.3 3.7 235 13.6
2007-03-16 09:19:46 51°9.247 2°37.403 244.8 3.6 238 13.6
2007-03-16 09:19:51 51°9.244 2°37.396 246.1 3.6 237 13.6
2007-03-16 09:19:56 51°9.242 2°37.389 246.9 3.6 241 13.6
2007-03-16 09:20:01 51°9.239 2°37.382 248 3.5 239 13.6
2007-03-16 09:20:06 51°9.237 2°37.375 248.7 3.5 243 13.6
2007-03-16 09:20:11 51°9.235 2°37.369 248.8 3.5 239 13.5
2007-03-16 09:20:16 51°9.233 2°37.362 248.9 3.4 242 13.5
2007-03-16 09:20:21 51°9.23 2°37.356 248.4 3.5 239 13.5
2007-03-16 09:20:26 51°9.228 2°37.349 247.3 3.4 240 13.5
2007-03-16 09:20:31 51°9.225 2°37.343 246.3 3.4 236 13.5
2007-03-16 09:20:36 51°9.222 2°37.337 244.8 3.4 237 13.5
2007-03-16 09:20:40 51°9.22 2°37.332 243.2 3.4 234 13.5
2007-03-16 09:20:46 51°9.217 2°37.325 242.3 3.4 233 13.4
2007-03-16 09:20:51 51°9.214 2°37.319 241.2 3.4 231 13.5
2007-03-16 09:20:56 51°9.211 2°37.313 240.5 3.4 232 13.4
2007-03-16 09:21:01 51°9.208 2°37.307 240.4 3.4 232 13.4
2007-03-16 09:21:06 51°9.205 2°37.301 241.3 3.4 232 13.5
2007-03-16 09:21:11 51°9.203 2°37.295 243.1 3.3 236 13.4
2007-03-16 09:21:16 51°9.2 2°37.289 245.8 3.3 239 13.4
2007-03-16 09:21:21 51°9.198 2°37.282 248.3 3.3 243 13.4
2007-03-16 09:21:26 51°9.196 2°37.276 250.1 3.2 243 13.3
2007-03-16 09:21:31 51°9.195 2°37.269 251 3.2 246 13.4
2007-03-16 09:21:36 51°9.192 2°37.263 251.3 3.2 242 13.3
2007-03-16 09:21:41 51°9.19 2°37.257 250.8 3.2 243 13.3
2007-03-16 09:21:46 51°9.188 2°37.251 249.5 3.2 240 13.4
2007-03-16 09:21:51 51°9.186 2°37.245 246.3 3.2 236 13.3
2007-03-16 09:21:56 51°9.183 2°37.24 243.5 3.2 233 13.3
2007-03-16 09:22:01 51°9.18 2°37.234 241 3.2 232 13.3
2007-03-16 09:22:06 51°9.177 2°37.229 239.6 3.2 230 13.3
2007-03-16 09:22:11 51°9.174 2°37.223 239.3 3.3 231 13.2
2007-03-16 09:22:16 51°9.171 2°37.218 239.4 3.2 231 13.2
2007-03-16 09:22:21 51°9.168 2°37.212 241.1 3.2 234 13.2
2007-03-16 09:22:26 51°9.166 2°37.206 244 3.1 240 13.2
2007-03-16 09:22:31 51°9.164 2°37.2 246.7 3.1 241 13.3
2007-03-16 09:22:36 51°9.163 2°37.194 251.2 3 251 13.2
2007-03-16 09:22:41 51°9.161 2°37.188 255.7 3 250 13.2
2007-03-16 09:22:46 51°9.161 2°37.181 258 2.9 257 13.2
2007-03-16 09:22:51 51°9.159 2°37.176 259.2 2.8 253 13.2
2007-03-16 09:22:56 51°9.159 2°37.17 259.4 2.7 255 13.3
2007-03-16 09:23:01 51°9.158 2°37.164 259.3 2.5 255 13.3
2007-03-16 09:23:06 51°9.157 2°37.16 259.4 2.4 256 13.2
2007-03-16 09:23:11 51°9.157 2°37.155 260.2 2.2 257 13.3
2007-03-16 09:23:16 51°9.156 2°37.151 260.7 2 260 13.3
2007-03-16 09:23:21 51°9.156 2°37.147 261.9 1.6 260 13.2
2007-03-16 09:23:26 51°9.156 2°37.145 264.7 1.2 273 13.2
2007-03-16 09:23:31 51°9.157 2°37.144 267.8 0.8 284 13.3
2007-03-16 09:23:36 51°9.157 2°37.143 272 0.4 311 13.3
2007-03-16 09:23:41 51°9.158 2°37.143 276.4 0.3 354 13.3
2007-03-16 09:23:46 51°9.158 2°37.143 280.5 0.4 9 13.3
2007-03-16 09:23:51 51°9.159 2°37.143 284.8 0.4 16 13.3
2007-03-16 09:23:56 51°9.159 2°37.144 287.8 0.5 21 13.4
2007-03-16 09:24:01 51°9.16 2°37.144 290.2 0.4 22 13.4
2007-03-16 09:24:06 51°9.161 2°37.145 291.6 0.5 27 13.3
2007-03-16 09:24:11 51°9.161 2°37.145 293.2 0.5 29 13.4
2007-03-16 09:24:16 51°9.162 2°37.146 295.1 0.6 32 13.4
2007-03-16 09:24:21 51°9.163 2°37.147 296.2 0.6 34 13.4
2007-03-16 09:24:26 51°9.164 2°37.148 297.1 0.7 30 13.4
2007-03-16 09:24:31 51°9.165 2°37.148 298.2 0.6 34 13.4
2007-03-16 09:24:36 51°9.165 2°37.149 299 0.7 37 13.4
2007-03-16 09:24:41 51°9.166 2°37.15 299.9 0.7 36 13.3
2007-03-16 09:24:46 51°9.167 2°37.151 300.3 0.7 39 13.4
2007-03-16 09:24:51 51°9.168 2°37.152 300.9 0.7 41 13.4
2007-03-16 09:24:56 51°9.168 2°37.153 301.3 0.8 40 13.4
2007-03-16 09:25:01 51°9.169 2°37.155 301.8 0.7 42 13.4
2007-03-16 09:25:06 51°9.17 2°37.156 302.1 0.7 43 13.4
2007-03-16 09:25:11 51°9.171 2°37.157 302.5 0.8 46 13.4
2007-03-16 09:25:16 51°9.171 2°37.158 302.8 0.8 45 13.4
2007-03-16 09:25:21 51°9.172 2°37.16 303.1 0.8 48 13.4
2007-03-16 09:25:26 51°9.173 2°37.161 303.4 0.8 47 13.4
2007-03-16 09:25:31 51°9.174 2°37.162 303.7 0.8 47 13.4
2007-03-16 09:25:36 51°9.174 2°37.164 304 0.8 51 13.4
2007-03-16 09:25:41 51°9.175 2°37.165 304 0.8 50 13.4
2007-03-16 09:25:46 51°9.176 2°37.166 304.1 0.8 53 13.4
2007-03-16 09:25:51 51°9.176 2°37.168 304.3 0.8 50 13.4
2007-03-16 09:25:56 51°9.177 2°37.169 304.4 0.8 55 13.4
2007-03-16 09:26:01 51°9.178 2°37.171 304.5 0.9 54 13.5
2007-03-16 09:26:06 51°9.178 2°37.173 304.6 0.8 56 13.5
2007-03-16 09:26:11 51°9.179 2°37.174 304.6 0.9 55 13.4
2007-03-16 09:26:16 51°9.18 2°37.176 304.6 0.8 58 13.4
2007-03-16 09:26:21 51°9.181 2°37.178 304.5 0.9 57 13.4
2007-03-16 09:26:26 51°9.181 2°37.179 304.5 0.8 56 13.5
2007-03-16 09:26:31 51°9.182 2°37.181 304.4 0.9 58 13.4
2007-03-16 09:26:36 51°9.182 2°37.182 304.2 0.8 60 13.5
2007-03-16 09:26:41 51°9.183 2°37.184 304.1 0.9 62 13.5
2007-03-16 09:26:46 51°9.183 2°37.186 304.1 0.9 61 13.5
2007-03-16 09:26:51 51°9.184 2°37.187 304 0.9 62 13.5
2007-03-16 09:26:56 51°9.185 2°37.189 304 0.9 61 13.5
2007-03-16 09:27:01 51°9.185 2°37.191 303.8 0.9 62 13.5
2007-03-16 09:27:06 51°9.186 2°37.193 303.7 1 59 13.5
2007-03-16 09:27:11 51°9.187 2°37.195 303.7 0.9 64 13.4
2007-03-16 09:27:16 51°9.187 2°37.197 303.4 0.9 64 13.5
2007-03-16 09:27:20 51°9.188 2°37.198 303.4 0.9 64 13.5
2007-03-16 09:27:26 51°9.188 2°37.2 303.3 0.9 64 13.5
2007-03-16 09:27:31 51°9.189 2°37.202 303 0.9 65 13.5
2007-03-16 09:27:36 51°9.189 2°37.203 303 0.9 65 13.5
2007-03-16 09:27:40 51°9.189 2°37.205 303 0.9 66 13.5
2007-03-16 09:27:46 51°9.19 2°37.207 302.7 0.9 67 13.5
2007-03-16 09:27:51 51°9.191 2°37.209 302.6 1 66 13.5
2007-03-16 09:27:56 51°9.191 2°37.211 302.6 1 69 13.5
2007-03-16 09:28:01 51°9.192 2°37.213 302.5 1 67 13.5
2007-03-16 09:28:06 51°9.192 2°37.215 302.4 0.9 66 13.5
2007-03-16 09:28:11 51°9.193 2°37.217 302.4 1 68 13.5
2007-03-16 09:28:16 51°9.193 2°37.219 302.1 0.9 71 13.5
2007-03-16 09:28:21 51°9.194 2°37.221 302.1 1 67 13.5
2007-03-16 09:28:26 51°9.194 2°37.223 302.1 0.9 70 13.5
2007-03-16 09:28:31 51°9.195 2°37.225 302 1 67 13.5
2007-03-16 09:28:36 51°9.195 2°37.227 301.9 0.9 71 13.5
2007-03-16 09:28:41 51°9.195 2°37.229 301.9 1 69 13.5
2007-03-16 09:28:46 51°9.196 2°37.231 301.8 1 70 13.5
2007-03-16 09:28:51 51°9.197 2°37.233 301.8 1 68 13.6
2007-03-16 09:28:56 51°9.197 2°37.235 301.8 1 71 13.5
2007-03-16 09:29:01 51°9.198 2°37.238 301.8 1 68 13.6
2007-03-16 09:29:06 51°9.198 2°37.239 301.8 1 74 13.6
2007-03-16 09:29:11 51°9.198 2°37.242 301.6 1 68 13.6
2007-03-16 09:29:16 51°9.199 2°37.244 301.5 1 69 13.5
2007-03-16 09:29:21 51°9.199 2°37.246 301.3 1 72 13.5
2007-03-16 09:29:26 51°9.2 2°37.248 301.2 1 69 13.5
2007-03-16 09:29:31 51°9.2 2°37.25 301.1 1 73 13.5
2007-03-16 09:29:36 51°9.201 2°37.253 300.9 1 70 13.5
2007-03-16 09:29:41 51°9.201 2°37.254 300.6 1 75 13.6
2007-03-16 09:29:46 51°9.201 2°37.257 300.4 1.1 73 13.5
2007-03-16 09:29:51 51°9.201 2°37.259 300.1 1 76 13.5
2007-03-16 09:29:56 51°9.202 2°37.261 299.8 1.1 71 13.5
2007-03-16 09:30:01 51°9.202 2°37.263 299.7 1 75 13.5
2007-03-16 09:30:06 51°9.202 2°37.265 299.4 1.1 73 13.5
2007-03-16 09:30:11 51°9.203 2°37.267 299 1 75 13.5
2007-03-16 09:30:16 51°9.203 2°37.269 298.8 1 70 13.5
2007-03-16 09:30:20 51°9.204 2°37.271 298.6 1 72 13.5
2007-03-16 09:30:26 51°9.204 2°37.274 298.3 1 76 13.6
2007-03-16 09:30:31 51°9.205 2°37.277 298.1 1.1 72 13.5
2007-03-16 09:30:36 51°9.205 2°37.279 298.1 1 76 13.5
2007-03-16 09:30:41 51°9.206 2°37.281 297.8 1 72 13.6
2007-03-16 09:30:46 51°9.206 2°37.283 297.7 1.1 74 13.5
2007-03-16 09:30:51 51°9.207 2°37.286 297.5 1.1 73 13.6
2007-03-16 09:30:56 51°9.207 2°37.288 297.2 1 74 13.6
2007-03-16 09:31:01 51°9.207 2°37.29 296.9 1.1 73 13.6